sensor_id;sensor_type;location;lat;lon;timestamp;temperature;humidity
67890;DHT22;54685;52.082;5.426;2023-12-20T00:01:07;6.50;99.90
67890;DHT22;54685;52.082;5.426;2023-12-20T00:03:34;6.40;99.90
67890;DHT22;54685;52.082;5.426;2023-12-20T00:06:08;6.40;99.90
67890;DHT22;54685;52.082;5.426;2023-12-20T00:08:36;6.40;99.90
67890;DHT22;54685;52.082;5.426;2023-12-20T00:11:03;6.40;99.90
67890;DHT22;54685;52.082;5.426;2023-12-20T00:13:30;6.40;99.90
67890;DHT22;54685;52.082;5.426;2023-12-20T00:15:57;6.40;99.90
67890;DHT22;54685;52.082;5.426;2023-12-20T00:18:24;6.40;99.90
67890;DHT22;54685;52.082;5.426;2023-12-20T00:20:50;6.40;99.90
67890;DHT22;54685;52.082;5.426;2023-12-20T00:23:17;6.30;99.90
67890;DHT22;54685;52.082;5.426;2023-12-20T00:25:44;6.30;99.90
67890;DHT22;54685;52.082;5.426;2023-12-20T00:28:11;6.30;99.90
67890;DHT22;54685;52.082;5.426;2023-12-20T00:30:38;6.30;99.90
67890;DHT22;54685;52.082;5.426;2023-12-20T00:33:05;6.20;99.90
67890;DHT22;54685;52.082;5.426;2023-12-20T00:35:32;6.20;99.90
67890;DHT22;54685;52.082;5.426;2023-12-20T00:37:59;6.20;99.90
67890;DHT22;54685;52.082;5.426;2023-12-20T00:40:26;6.10;99.90
67890;DHT22;54685;52.082;5.426;2023-12-20T00:42:53;6.10;99.90
67890;DHT22;54685;52.082;5.426;2023-12-20T00:45:22;6.10;99.90
67890;DHT22;54685;52.082;5.426;2023-12-20T00:47:49;6.10;99.90
67890;DHT22;54685;52.082;5.426;2023-12-20T00:50:17;6.00;99.90
67890;DHT22;54685;52.082;5.426;2023-12-20T00:52:44;6.00;99.90
67890;DHT22;54685;52.082;5.426;2023-12-20T00:55:11;5.90;99.90
67890;DHT22;54685;52.082;5.426;2023-12-20T00:57:44;6.00;99.90
67890;DHT22;54685;52.082;5.426;2023-12-20T01:00:11;6.00;99.90
67890;DHT22;54685;52.082;5.426;2023-12-20T01:02:40;6.00;99.90
67890;DHT22;54685;52.082;5.426;2023-12-20T01:05:07;5.90;99.90
67890;DHT22;54685;52.082;5.426;2023-12-20T01:07:36;5.80;99.90
67890;DHT22;54685;52.082;5.426;2023-12-20T01:10:03;5.80;99.90
67890;DHT22;54685;52.082;5.426;2023-12-20T01:12:30;5.70;99.90
67890;DHT22;54685;52.082;5.426;2023-12-20T01:14:57;5.70;99.90
67890;DHT22;54685;52.082;5.426;2023-12-20T01:17:25;5.80;99.90
67890;DHT22;54685;52.082;5.426;2023-12-20T01:19:52;5.70;99.90
67890;DHT22;54685;52.082;5.426;2023-12-20T01:22:19;5.70;99.90
67890;DHT22;54685;52.082;5.426;2023-12-20T01:24:46;5.70;99.90
67890;DHT22;54685;52.082;5.426;2023-12-20T01:27:12;5.70;99.90
67890;DHT22;54685;52.082;5.426;2023-12-20T01:29:39;5.70;99.90
67890;DHT22;54685;52.082;5.426;2023-12-20T01:32:06;5.70;99.90
67890;DHT22;54685;52.082;5.426;2023-12-20T01:34:33;5.70;99.90
67890;DHT22;54685;52.082;5.426;2023-12-20T01:37:00;5.80;99.90
67890;DHT22;54685;52.082;5.426;2023-12-20T01:39:27;5.70;99.90
67890;DHT22;54685;52.082;5.426;2023-12-20T01:41:55;5.70;99.90
67890;DHT22;54685;52.082;5.426;2023-12-20T01:44:22;5.80;99.90
67890;DHT22;54685;52.082;5.426;2023-12-20T01:46:49;5.80;99.90
67890;DHT22;54685;52.082;5.426;2023-12-20T01:49:16;5.80;99.90
67890;DHT22;54685;52.082;5.426;2023-12-20T01:51:44;5.80;99.90
67890;DHT22;54685;52.082;5.426;2023-12-20T01:54:12;5.80;99.90
67890;DHT22;54685;52.082;5.426;2023-12-20T01:56:40;5.80;99.90
67890;DHT22;54685;52.082;5.426;2023-12-20T01:59:07;5.80;99.90
67890;DHT22;54685;52.082;5.426;2023-12-20T02:01:36;5.80;99.90
67890;DHT22;54685;52.082;5.426;2023-12-20T02:04:04;5.90;99.90
67890;DHT22;54685;52.082;5.426;2023-12-20T02:06:33;5.90;99.90
67890;DHT22;54685;52.082;5.426;2023-12-20T02:09:01;5.90;99.90
67890;DHT22;54685;52.082;5.426;2023-12-20T02:11:28;5.90;99.90
67890;DHT22;54685;52.082;5.426;2023-12-20T02:13:55;6.00;99.90
67890;DHT22;54685;52.082;5.426;2023-12-20T02:16:22;6.00;99.90
67890;DHT22;54685;52.082;5.426;2023-12-20T02:18:49;6.00;99.90
67890;DHT22;54685;52.082;5.426;2023-12-20T02:21:16;6.00;99.90
67890;DHT22;54685;52.082;5.426;2023-12-20T02:23:43;6.00;99.90
67890;DHT22;54685;52.082;5.426;2023-12-20T02:26:10;6.10;99.90
67890;DHT22;54685;52.082;5.426;2023-12-20T02:28:37;6.00;99.90
67890;DHT22;54685;52.082;5.426;2023-12-20T02:31:10;6.10;99.90
67890;DHT22;54685;52.082;5.426;2023-12-20T02:33:37;6.10;99.90
67890;DHT22;54685;52.082;5.426;2023-12-20T02:36:06;6.10;99.90
67890;DHT22;54685;52.082;5.426;2023-12-20T02:38:33;6.10;99.90
67890;DHT22;54685;52.082;5.426;2023-12-20T02:41:01;6.10;99.90
67890;DHT22;54685;52.082;5.426;2023-12-20T02:43:28;6.10;99.90
67890;DHT22;54685;52.082;5.426;2023-12-20T02:45:54;6.10;99.90
67890;DHT22;54685;52.082;5.426;2023-12-20T02:48:22;6.10;99.90
67890;DHT22;54685;52.082;5.426;2023-12-20T02:50:49;6.10;99.90
67890;DHT22;54685;52.082;5.426;2023-12-20T02:53:16;6.20;99.90
67890;DHT22;54685;52.082;5.426;2023-12-20T02:55:43;6.20;99.90
67890;DHT22;54685;52.082;5.426;2023-12-20T02:58:13;6.30;99.90
67890;DHT22;54685;52.082;5.426;2023-12-20T03:00:39;6.30;99.90
67890;DHT22;54685;52.082;5.426;2023-12-20T03:03:07;6.30;99.90
67890;DHT22;54685;52.082;5.426;2023-12-20T03:05:34;6.20;99.90
67890;DHT22;54685;52.082;5.426;2023-12-20T03:08:01;6.20;99.90
67890;DHT22;54685;52.082;5.426;2023-12-20T03:10:28;6.30;99.90
67890;DHT22;54685;52.082;5.426;2023-12-20T03:12:55;6.30;99.90
67890;DHT22;54685;52.082;5.426;2023-12-20T03:15:22;6.30;99.90
67890;DHT22;54685;52.082;5.426;2023-12-20T03:17:49;6.30;99.90
67890;DHT22;54685;52.082;5.426;2023-12-20T03:20:16;6.30;99.90
67890;DHT22;54685;52.082;5.426;2023-12-20T03:22:43;6.30;99.90
67890;DHT22;54685;52.082;5.426;2023-12-20T03:25:10;6.30;99.90
67890;DHT22;54685;52.082;5.426;2023-12-20T03:27:37;6.40;99.90
67890;DHT22;54685;52.082;5.426;2023-12-20T03:30:07;6.40;99.90
67890;DHT22;54685;52.082;5.426;2023-12-20T03:32:35;6.40;99.90
67890;DHT22;54685;52.082;5.426;2023-12-20T03:35:02;6.40;99.90
67890;DHT22;54685;52.082;5.426;2023-12-20T03:37:29;6.40;99.90
67890;DHT22;54685;52.082;5.426;2023-12-20T03:39:56;6.40;99.90
67890;DHT22;54685;52.082;5.426;2023-12-20T03:42:23;6.40;99.90
67890;DHT22;54685;52.082;5.426;2023-12-20T03:44:49;6.30;99.90
67890;DHT22;54685;52.082;5.426;2023-12-20T03:47:16;6.30;99.90
67890;DHT22;54685;52.082;5.426;2023-12-20T03:49:43;6.30;99.90
67890;DHT22;54685;52.082;5.426;2023-12-20T03:52:10;6.30;99.90
67890;DHT22;54685;52.082;5.426;2023-12-20T03:54:37;6.30;99.90
67890;DHT22;54685;52.082;5.426;2023-12-20T03:57:04;6.30;99.90
67890;DHT22;54685;52.082;5.426;2023-12-20T03:59:35;6.30;99.90
67890;DHT22;54685;52.082;5.426;2023-12-20T04:02:03;6.40;99.90
67890;DHT22;54685;52.082;5.426;2023-12-20T04:04:30;6.40;99.90
67890;DHT22;54685;52.082;5.426;2023-12-20T04:06:57;6.40;99.90
67890;DHT22;54685;52.082;5.426;2023-12-20T04:09:25;6.40;99.90
67890;DHT22;54685;52.082;5.426;2023-12-20T04:11:52;6.40;99.90
67890;DHT22;54685;52.082;5.426;2023-12-20T04:14:19;6.40;99.90
67890;DHT22;54685;52.082;5.426;2023-12-20T04:16:45;6.40;99.90
67890;DHT22;54685;52.082;5.426;2023-12-20T04:19:13;6.40;99.90
67890;DHT22;54685;52.082;5.426;2023-12-20T04:21:40;6.50;99.90
67890;DHT22;54685;52.082;5.426;2023-12-20T04:24:07;6.50;99.90
67890;DHT22;54685;52.082;5.426;2023-12-20T04:26:35;6.50;99.90
67890;DHT22;54685;52.082;5.426;2023-12-20T04:29:02;6.50;99.90
67890;DHT22;54685;52.082;5.426;2023-12-20T04:31:29;6.60;99.90
67890;DHT22;54685;52.082;5.426;2023-12-20T04:33:56;6.50;99.90
67890;DHT22;54685;52.082;5.426;2023-12-20T04:36:23;6.60;99.90
67890;DHT22;54685;52.082;5.426;2023-12-20T04:38:52;6.60;99.90
67890;DHT22;54685;52.082;5.426;2023-12-20T04:41:19;6.60;99.90
67890;DHT22;54685;52.082;5.426;2023-12-20T04:43:46;6.60;99.90
67890;DHT22;54685;52.082;5.426;2023-12-20T04:46:13;6.70;99.90
67890;DHT22;54685;52.082;5.426;2023-12-20T04:48:40;6.60;99.90
67890;DHT22;54685;52.082;5.426;2023-12-20T04:51:07;6.70;99.90
67890;DHT22;54685;52.082;5.426;2023-12-20T04:53:34;6.70;99.90
67890;DHT22;54685;52.082;5.426;2023-12-20T04:56:01;6.70;99.90
67890;DHT22;54685;52.082;5.426;2023-12-20T04:58:28;6.70;99.90
67890;DHT22;54685;52.082;5.426;2023-12-20T05:00:55;6.70;99.90
67890;DHT22;54685;52.082;5.426;2023-12-20T05:03:22;6.80;99.90
67890;DHT22;54685;52.082;5.426;2023-12-20T05:05:48;6.80;99.90
67890;DHT22;54685;52.082;5.426;2023-12-20T05:08:16;6.90;99.90
67890;DHT22;54685;52.082;5.426;2023-12-20T05:10:43;7.00;99.90
67890;DHT22;54685;52.082;5.426;2023-12-20T05:13:10;7.00;99.90
67890;DHT22;54685;52.082;5.426;2023-12-20T05:15:37;7.00;99.90
67890;DHT22;54685;52.082;5.426;2023-12-20T05:18:04;7.00;99.90
67890;DHT22;54685;52.082;5.426;2023-12-20T05:20:31;7.00;99.90
67890;DHT22;54685;52.082;5.426;2023-12-20T05:22:58;7.00;99.90
67890;DHT22;54685;52.082;5.426;2023-12-20T05:25:25;7.10;99.90
67890;DHT22;54685;52.082;5.426;2023-12-20T05:27:53;7.10;99.90
67890;DHT22;54685;52.082;5.426;2023-12-20T05:30:20;7.10;99.90
67890;DHT22;54685;52.082;5.426;2023-12-20T05:32:47;7.00;99.90
67890;DHT22;54685;52.082;5.426;2023-12-20T05:35:14;7.00;99.90
67890;DHT22;54685;52.082;5.426;2023-12-20T05:37:42;7.00;99.90
67890;DHT22;54685;52.082;5.426;2023-12-20T05:40:10;7.10;99.90
67890;DHT22;54685;52.082;5.426;2023-12-20T05:42:37;7.00;99.90
67890;DHT22;54685;52.082;5.426;2023-12-20T05:45:05;7.00;99.90
67890;DHT22;54685;52.082;5.426;2023-12-20T05:47:32;7.00;99.90
67890;DHT22;54685;52.082;5.426;2023-12-20T05:49:59;7.10;99.90
67890;DHT22;54685;52.082;5.426;2023-12-20T05:52:26;7.10;99.90
67890;DHT22;54685;52.082;5.426;2023-12-20T05:54:53;7.10;99.90
67890;DHT22;54685;52.082;5.426;2023-12-20T05:57:20;7.10;99.90
67890;DHT22;54685;52.082;5.426;2023-12-20T05:59:47;7.10;99.90
67890;DHT22;54685;52.082;5.426;2023-12-20T06:02:14;7.10;99.90
67890;DHT22;54685;52.082;5.426;2023-12-20T06:04:44;7.10;99.90
67890;DHT22;54685;52.082;5.426;2023-12-20T06:07:12;7.10;99.90
67890;DHT22;54685;52.082;5.426;2023-12-20T06:09:40;7.10;99.90
67890;DHT22;54685;52.082;5.426;2023-12-20T06:12:07;7.10;99.90
67890;DHT22;54685;52.082;5.426;2023-12-20T06:14:35;7.10;99.90
67890;DHT22;54685;52.082;5.426;2023-12-20T06:17:02;7.30;99.90
67890;DHT22;54685;52.082;5.426;2023-12-20T06:19:29;7.20;99.90
67890;DHT22;54685;52.082;5.426;2023-12-20T06:21:56;7.30;99.90
67890;DHT22;54685;52.082;5.426;2023-12-20T06:24:23;7.40;99.90
67890;DHT22;54685;52.082;5.426;2023-12-20T06:26:54;7.30;99.90
67890;DHT22;54685;52.082;5.426;2023-12-20T06:29:22;7.20;99.90
67890;DHT22;54685;52.082;5.426;2023-12-20T06:31:49;7.30;99.90
67890;DHT22;54685;52.082;5.426;2023-12-20T06:34:18;7.40;99.90
67890;DHT22;54685;52.082;5.426;2023-12-20T06:36:45;7.40;99.90
67890;DHT22;54685;52.082;5.426;2023-12-20T06:39:12;7.40;99.90
67890;DHT22;54685;52.082;5.426;2023-12-20T06:41:39;7.40;99.90
67890;DHT22;54685;52.082;5.426;2023-12-20T06:44:06;7.40;99.90
67890;DHT22;54685;52.082;5.426;2023-12-20T06:46:33;7.40;99.90
67890;DHT22;54685;52.082;5.426;2023-12-20T06:49:01;7.30;99.90
67890;DHT22;54685;52.082;5.426;2023-12-20T06:51:28;7.30;99.90
67890;DHT22;54685;52.082;5.426;2023-12-20T06:53:55;7.30;99.90
67890;DHT22;54685;52.082;5.426;2023-12-20T06:56:22;7.30;99.90
67890;DHT22;54685;52.082;5.426;2023-12-20T06:58:49;7.40;99.90
67890;DHT22;54685;52.082;5.426;2023-12-20T07:01:16;7.30;99.90
67890;DHT22;54685;52.082;5.426;2023-12-20T07:03:47;7.40;99.90
67890;DHT22;54685;52.082;5.426;2023-12-20T07:06:14;7.40;99.90
67890;DHT22;54685;52.082;5.426;2023-12-20T07:08:43;7.30;99.90
67890;DHT22;54685;52.082;5.426;2023-12-20T07:11:10;7.30;99.90
67890;DHT22;54685;52.082;5.426;2023-12-20T07:13:37;7.30;99.90
67890;DHT22;54685;52.082;5.426;2023-12-20T07:16:04;7.30;99.90
67890;DHT22;54685;52.082;5.426;2023-12-20T07:18:31;7.30;99.90
67890;DHT22;54685;52.082;5.426;2023-12-20T07:20:58;7.40;99.90
67890;DHT22;54685;52.082;5.426;2023-12-20T07:23:25;7.40;99.90
67890;DHT22;54685;52.082;5.426;2023-12-20T07:25:53;7.40;99.90
67890;DHT22;54685;52.082;5.426;2023-12-20T07:28:20;7.40;99.90
67890;DHT22;54685;52.082;5.426;2023-12-20T07:30:47;7.40;99.90
67890;DHT22;54685;52.082;5.426;2023-12-20T07:33:14;7.50;99.90
67890;DHT22;54685;52.082;5.426;2023-12-20T07:35:44;7.50;99.90
67890;DHT22;54685;52.082;5.426;2023-12-20T07:38:12;7.40;99.90
67890;DHT22;54685;52.082;5.426;2023-12-20T07:40:42;7.50;99.90
67890;DHT22;54685;52.082;5.426;2023-12-20T07:43:09;7.50;99.90
67890;DHT22;54685;52.082;5.426;2023-12-20T07:45:39;7.40;99.90
67890;DHT22;54685;52.082;5.426;2023-12-20T07:48:07;7.40;99.90
67890;DHT22;54685;52.082;5.426;2023-12-20T07:50:34;7.40;99.90
67890;DHT22;54685;52.082;5.426;2023-12-20T07:53:01;7.40;99.90
67890;DHT22;54685;52.082;5.426;2023-12-20T07:55:28;7.40;99.90
67890;DHT22;54685;52.082;5.426;2023-12-20T07:57:57;7.50;99.90
67890;DHT22;54685;52.082;5.426;2023-12-20T08:00:25;7.50;99.90
67890;DHT22;54685;52.082;5.426;2023-12-20T08:02:51;7.50;99.90
67890;DHT22;54685;52.082;5.426;2023-12-20T08:05:19;7.50;99.90
67890;DHT22;54685;52.082;5.426;2023-12-20T08:07:46;7.60;99.90
67890;DHT22;54685;52.082;5.426;2023-12-20T08:10:13;7.60;99.90
67890;DHT22;54685;52.082;5.426;2023-12-20T08:12:40;7.60;99.90
67890;DHT22;54685;52.082;5.426;2023-12-20T08:15:08;7.70;99.90
67890;DHT22;54685;52.082;5.426;2023-12-20T08:17:35;7.70;99.90
67890;DHT22;54685;52.082;5.426;2023-12-20T08:20:02;7.70;99.90
67890;DHT22;54685;52.082;5.426;2023-12-20T08:22:29;7.80;99.90
67890;DHT22;54685;52.082;5.426;2023-12-20T08:24:56;7.70;99.90
67890;DHT22;54685;52.082;5.426;2023-12-20T08:27:23;7.60;99.90
67890;DHT22;54685;52.082;5.426;2023-12-20T08:29:52;7.70;99.90
67890;DHT22;54685;52.082;5.426;2023-12-20T08:32:19;7.70;99.90
67890;DHT22;54685;52.082;5.426;2023-12-20T08:34:46;7.70;99.90
67890;DHT22;54685;52.082;5.426;2023-12-20T08:37:13;7.70;99.90
67890;DHT22;54685;52.082;5.426;2023-12-20T08:39:40;7.70;99.90
67890;DHT22;54685;52.082;5.426;2023-12-20T08:42:11;7.70;99.90
67890;DHT22;54685;52.082;5.426;2023-12-20T08:44:38;7.60;99.90
67890;DHT22;54685;52.082;5.426;2023-12-20T08:47:05;7.70;99.90
67890;DHT22;54685;52.082;5.426;2023-12-20T08:49:32;7.70;99.90
67890;DHT22;54685;52.082;5.426;2023-12-20T08:51:59;7.70;99.90
67890;DHT22;54685;52.082;5.426;2023-12-20T08:54:26;7.70;99.90
67890;DHT22;54685;52.082;5.426;2023-12-20T08:56:53;7.70;99.90
67890;DHT22;54685;52.082;5.426;2023-12-20T08:59:20;7.70;99.90
67890;DHT22;54685;52.082;5.426;2023-12-20T09:01:47;7.70;99.90
67890;DHT22;54685;52.082;5.426;2023-12-20T09:04:15;7.70;99.90
67890;DHT22;54685;52.082;5.426;2023-12-20T09:06:42;7.70;99.90
67890;DHT22;54685;52.082;5.426;2023-12-20T09:09:10;7.70;99.90
67890;DHT22;54685;52.082;5.426;2023-12-20T09:11:43;7.70;99.90
67890;DHT22;54685;52.082;5.426;2023-12-20T09:14:13;7.70;99.90
67890;DHT22;54685;52.082;5.426;2023-12-20T09:16:40;7.60;99.90
67890;DHT22;54685;52.082;5.426;2023-12-20T09:19:07;7.60;99.90
67890;DHT22;54685;52.082;5.426;2023-12-20T09:21:34;7.60;99.90
67890;DHT22;54685;52.082;5.426;2023-12-20T09:24:01;7.70;99.90
67890;DHT22;54685;52.082;5.426;2023-12-20T09:26:28;7.60;99.90
67890;DHT22;54685;52.082;5.426;2023-12-20T09:28:55;7.60;99.90
67890;DHT22;54685;52.082;5.426;2023-12-20T09:31:22;7.60;99.90
67890;DHT22;54685;52.082;5.426;2023-12-20T09:33:49;7.60;99.90
67890;DHT22;54685;52.082;5.426;2023-12-20T09:36:16;7.70;99.90
67890;DHT22;54685;52.082;5.426;2023-12-20T09:38:43;7.70;99.90
67890;DHT22;54685;52.082;5.426;2023-12-20T09:41:12;7.70;99.90
67890;DHT22;54685;52.082;5.426;2023-12-20T09:43:41;7.70;99.90
67890;DHT22;54685;52.082;5.426;2023-12-20T09:46:11;7.70;99.90
67890;DHT22;54685;52.082;5.426;2023-12-20T09:48:39;7.70;99.90
67890;DHT22;54685;52.082;5.426;2023-12-20T09:51:07;7.80;99.90
67890;DHT22;54685;52.082;5.426;2023-12-20T09:53:36;7.80;99.90
67890;DHT22;54685;52.082;5.426;2023-12-20T09:56:06;7.80;99.90
67890;DHT22;54685;52.082;5.426;2023-12-20T09:58:35;7.90;99.90
67890;DHT22;54685;52.082;5.426;2023-12-20T10:01:03;8.00;99.90
67890;DHT22;54685;52.082;5.426;2023-12-20T10:03:31;8.10;99.90
67890;DHT22;54685;52.082;5.426;2023-12-20T10:05:59;8.10;99.90
67890;DHT22;54685;52.082;5.426;2023-12-20T10:08:27;8.20;99.90
67890;DHT22;54685;52.082;5.426;2023-12-20T10:10:56;8.20;99.90
67890;DHT22;54685;52.082;5.426;2023-12-20T10:13:28;8.20;99.90
67890;DHT22;54685;52.082;5.426;2023-12-20T10:15:56;8.30;99.90
67890;DHT22;54685;52.082;5.426;2023-12-20T10:18:24;8.30;99.90
67890;DHT22;54685;52.082;5.426;2023-12-20T10:21:05;8.30;99.90
67890;DHT22;54685;52.082;5.426;2023-12-20T10:23:32;8.30;99.90
67890;DHT22;54685;52.082;5.426;2023-12-20T10:26:00;8.30;99.90
67890;DHT22;54685;52.082;5.426;2023-12-20T10:28:33;8.30;99.90
67890;DHT22;54685;52.082;5.426;2023-12-20T10:31:01;8.40;99.90
67890;DHT22;54685;52.082;5.426;2023-12-20T10:33:29;8.40;99.90
67890;DHT22;54685;52.082;5.426;2023-12-20T10:35:59;8.40;99.90
67890;DHT22;54685;52.082;5.426;2023-12-20T10:38:26;8.40;99.90
67890;DHT22;54685;52.082;5.426;2023-12-20T10:40:57;8.50;99.90
67890;DHT22;54685;52.082;5.426;2023-12-20T10:43:28;8.50;99.90
67890;DHT22;54685;52.082;5.426;2023-12-20T10:45:59;8.50;99.90
67890;DHT22;54685;52.082;5.426;2023-12-20T10:48:30;8.50;99.90
67890;DHT22;54685;52.082;5.426;2023-12-20T10:50:59;8.50;99.90
67890;DHT22;54685;52.082;5.426;2023-12-20T10:53:26;8.60;99.90
67890;DHT22;54685;52.082;5.426;2023-12-20T10:55:55;8.60;99.90
67890;DHT22;54685;52.082;5.426;2023-12-20T10:58:24;8.60;99.90
67890;DHT22;54685;52.082;5.426;2023-12-20T11:01:00;8.60;99.90
67890;DHT22;54685;52.082;5.426;2023-12-20T11:03:34;8.60;99.90
67890;DHT22;54685;52.082;5.426;2023-12-20T11:06:10;8.70;99.90
67890;DHT22;54685;52.082;5.426;2023-12-20T11:11:38;8.80;99.90
67890;DHT22;54685;52.082;5.426;2023-12-20T11:14:15;8.90;99.90
67890;DHT22;54685;52.082;5.426;2023-12-20T11:16:43;8.90;99.90
67890;DHT22;54685;52.082;5.426;2023-12-20T11:19:20;9.00;99.90
67890;DHT22;54685;52.082;5.426;2023-12-20T11:21:47;9.10;99.90
67890;DHT22;54685;52.082;5.426;2023-12-20T11:24:15;9.10;99.90
67890;DHT22;54685;52.082;5.426;2023-12-20T11:26:47;9.20;99.90
67890;DHT22;54685;52.082;5.426;2023-12-20T11:29:35;9.20;99.90
67890;DHT22;54685;52.082;5.426;2023-12-20T11:34:48;9.30;99.90
67890;DHT22;54685;52.082;5.426;2023-12-20T11:37:16;9.20;99.90
67890;DHT22;54685;52.082;5.426;2023-12-20T11:39:43;9.30;99.90
67890;DHT22;54685;52.082;5.426;2023-12-20T11:42:10;9.30;99.90
67890;DHT22;54685;52.082;5.426;2023-12-20T11:44:38;9.30;99.90
67890;DHT22;54685;52.082;5.426;2023-12-20T11:47:05;9.30;99.90
67890;DHT22;54685;52.082;5.426;2023-12-20T11:49:33;9.30;99.90
67890;DHT22;54685;52.082;5.426;2023-12-20T11:52:03;9.30;99.90
67890;DHT22;54685;52.082;5.426;2023-12-20T11:54:30;9.20;99.90
67890;DHT22;54685;52.082;5.426;2023-12-20T11:56:57;9.20;99.90
67890;DHT22;54685;52.082;5.426;2023-12-20T11:59:24;9.30;99.90
67890;DHT22;54685;52.082;5.426;2023-12-20T12:01:51;9.30;99.90
67890;DHT22;54685;52.082;5.426;2023-12-20T12:04:19;9.30;99.90
67890;DHT22;54685;52.082;5.426;2023-12-20T12:06:46;9.30;99.90
67890;DHT22;54685;52.082;5.426;2023-12-20T12:09:13;9.20;99.90
67890;DHT22;54685;52.082;5.426;2023-12-20T12:11:40;9.20;99.90
67890;DHT22;54685;52.082;5.426;2023-12-20T12:14:07;9.30;99.90
67890;DHT22;54685;52.082;5.426;2023-12-20T12:16:34;9.30;99.90
67890;DHT22;54685;52.082;5.426;2023-12-20T12:19:01;9.20;99.90
67890;DHT22;54685;52.082;5.426;2023-12-20T12:21:28;9.10;99.90
67890;DHT22;54685;52.082;5.426;2023-12-20T12:24:09;9.10;99.90
67890;DHT22;54685;52.082;5.426;2023-12-20T12:26:36;9.10;99.90
67890;DHT22;54685;52.082;5.426;2023-12-20T12:29:03;9.10;99.90
67890;DHT22;54685;52.082;5.426;2023-12-20T12:31:30;9.10;99.90
67890;DHT22;54685;52.082;5.426;2023-12-20T12:33:57;9.10;99.90
67890;DHT22;54685;52.082;5.426;2023-12-20T12:36:25;9.20;99.90
67890;DHT22;54685;52.082;5.426;2023-12-20T12:38:52;9.20;99.90
67890;DHT22;54685;52.082;5.426;2023-12-20T12:41:19;9.20;99.90
67890;DHT22;54685;52.082;5.426;2023-12-20T12:43:46;9.10;99.90
67890;DHT22;54685;52.082;5.426;2023-12-20T12:46:13;9.10;99.90
67890;DHT22;54685;52.082;5.426;2023-12-20T12:48:40;9.20;99.90
67890;DHT22;54685;52.082;5.426;2023-12-20T12:51:10;9.20;99.90
67890;DHT22;54685;52.082;5.426;2023-12-20T12:53:40;9.20;99.90
67890;DHT22;54685;52.082;5.426;2023-12-20T12:56:07;9.30;99.90
67890;DHT22;54685;52.082;5.426;2023-12-20T12:58:34;9.30;99.90
67890;DHT22;54685;52.082;5.426;2023-12-20T13:01:02;9.20;99.90
67890;DHT22;54685;52.082;5.426;2023-12-20T13:03:30;9.20;99.90
67890;DHT22;54685;52.082;5.426;2023-12-20T13:05:57;9.30;99.90
67890;DHT22;54685;52.082;5.426;2023-12-20T13:08:24;9.30;99.90
67890;DHT22;54685;52.082;5.426;2023-12-20T13:10:51;9.30;99.90
67890;DHT22;54685;52.082;5.426;2023-12-20T13:13:18;9.30;99.90
67890;DHT22;54685;52.082;5.426;2023-12-20T13:15:45;9.30;99.90
67890;DHT22;54685;52.082;5.426;2023-12-20T13:18:18;9.20;99.90
67890;DHT22;54685;52.082;5.426;2023-12-20T13:20:46;9.20;99.90
67890;DHT22;54685;52.082;5.426;2023-12-20T13:23:13;9.20;99.90
67890;DHT22;54685;52.082;5.426;2023-12-20T13:25:43;9.20;99.90
67890;DHT22;54685;52.082;5.426;2023-12-20T13:28:12;9.10;99.90
67890;DHT22;54685;52.082;5.426;2023-12-20T13:30:39;9.10;99.90
67890;DHT22;54685;52.082;5.426;2023-12-20T13:33:07;9.10;99.90
67890;DHT22;54685;52.082;5.426;2023-12-20T13:35:34;9.10;99.90
67890;DHT22;54685;52.082;5.426;2023-12-20T13:38:01;9.10;99.90
67890;DHT22;54685;52.082;5.426;2023-12-20T13:40:28;9.20;99.90
67890;DHT22;54685;52.082;5.426;2023-12-20T13:42:55;9.20;99.90
67890;DHT22;54685;52.082;5.426;2023-12-20T13:45:22;9.20;99.90
67890;DHT22;54685;52.082;5.426;2023-12-20T13:47:50;9.20;99.90
67890;DHT22;54685;52.082;5.426;2023-12-20T13:50:17;9.20;99.90
67890;DHT22;54685;52.082;5.426;2023-12-20T13:52:44;9.20;99.90
67890;DHT22;54685;52.082;5.426;2023-12-20T13:55:15;9.30;99.90
67890;DHT22;54685;52.082;5.426;2023-12-20T13:57:42;9.30;99.90
67890;DHT22;54685;52.082;5.426;2023-12-20T14:00:22;9.30;99.90
67890;DHT22;54685;52.082;5.426;2023-12-20T14:02:49;9.40;99.90
67890;DHT22;54685;52.082;5.426;2023-12-20T14:05:17;9.40;99.90
67890;DHT22;54685;52.082;5.426;2023-12-20T14:07:45;9.30;99.90
67890;DHT22;54685;52.082;5.426;2023-12-20T14:10:13;9.30;99.90
67890;DHT22;54685;52.082;5.426;2023-12-20T14:12:41;9.40;99.90
67890;DHT22;54685;52.082;5.426;2023-12-20T14:15:08;9.30;99.90
67890;DHT22;54685;52.082;5.426;2023-12-20T14:17:38;9.30;99.90
67890;DHT22;54685;52.082;5.426;2023-12-20T14:20:06;9.30;99.90
67890;DHT22;54685;52.082;5.426;2023-12-20T14:22:34;9.40;99.90
67890;DHT22;54685;52.082;5.426;2023-12-20T14:25:02;9.40;99.90
67890;DHT22;54685;52.082;5.426;2023-12-20T14:27:29;9.30;99.90
67890;DHT22;54685;52.082;5.426;2023-12-20T14:29:56;9.30;99.90
67890;DHT22;54685;52.082;5.426;2023-12-20T14:32:24;9.30;99.90
67890;DHT22;54685;52.082;5.426;2023-12-20T14:34:53;9.20;99.90
67890;DHT22;54685;52.082;5.426;2023-12-20T14:37:22;9.20;99.90
67890;DHT22;54685;52.082;5.426;2023-12-20T14:39:54;9.20;99.90
67890;DHT22;54685;52.082;5.426;2023-12-20T14:42:22;9.30;99.90
67890;DHT22;54685;52.082;5.426;2023-12-20T14:44:49;9.30;99.90
67890;DHT22;54685;52.082;5.426;2023-12-20T14:47:16;9.40;99.90
67890;DHT22;54685;52.082;5.426;2023-12-20T14:49:43;9.30;99.90
67890;DHT22;54685;52.082;5.426;2023-12-20T14:52:18;9.30;99.90
67890;DHT22;54685;52.082;5.426;2023-12-20T14:54:45;9.30;99.90
67890;DHT22;54685;52.082;5.426;2023-12-20T14:57:12;9.30;99.90
67890;DHT22;54685;52.082;5.426;2023-12-20T14:59:39;9.30;99.90
67890;DHT22;54685;52.082;5.426;2023-12-20T15:02:06;9.20;99.90
67890;DHT22;54685;52.082;5.426;2023-12-20T15:04:33;9.30;99.90
67890;DHT22;54685;52.082;5.426;2023-12-20T15:07:01;9.20;99.90
67890;DHT22;54685;52.082;5.426;2023-12-20T15:09:28;9.10;99.90
67890;DHT22;54685;52.082;5.426;2023-12-20T15:11:56;9.10;99.90
67890;DHT22;54685;52.082;5.426;2023-12-20T15:14:23;9.10;99.90
67890;DHT22;54685;52.082;5.426;2023-12-20T15:16:51;9.10;99.90
67890;DHT22;54685;52.082;5.426;2023-12-20T15:19:18;9.10;99.90
67890;DHT22;54685;52.082;5.426;2023-12-20T15:21:45;9.10;99.90
67890;DHT22;54685;52.082;5.426;2023-12-20T15:24:14;9.00;99.90
67890;DHT22;54685;52.082;5.426;2023-12-20T15:26:43;9.00;99.90
67890;DHT22;54685;52.082;5.426;2023-12-20T15:29:11;9.00;99.90
67890;DHT22;54685;52.082;5.426;2023-12-20T15:31:46;9.10;99.90
67890;DHT22;54685;52.082;5.426;2023-12-20T15:34:14;9.20;99.90
67890;DHT22;54685;52.082;5.426;2023-12-20T15:36:42;9.10;99.90
67890;DHT22;54685;52.082;5.426;2023-12-20T15:39:10;9.10;99.90
67890;DHT22;54685;52.082;5.426;2023-12-20T15:41:37;9.00;99.90
67890;DHT22;54685;52.082;5.426;2023-12-20T15:44:03;9.00;99.90
67890;DHT22;54685;52.082;5.426;2023-12-20T15:46:30;8.90;99.90
67890;DHT22;54685;52.082;5.426;2023-12-20T15:48:57;9.00;99.90
67890;DHT22;54685;52.082;5.426;2023-12-20T15:51:25;8.90;99.90
67890;DHT22;54685;52.082;5.426;2023-12-20T15:53:51;8.80;99.90